sensor_id;sensor_type;location;lat;lon;timestamp;P1;durP1;ratioP1;P2;durP2;ratioP2
47529;SDS011;33272;51.922;7.730;2023-04-25T00:02:23;8.80;;;5.03;;
47529;SDS011;33272;51.922;7.730;2023-04-25T00:04:51;10.27;;;4.80;;
47529;SDS011;33272;51.922;7.730;2023-04-25T00:07:19;9.77;;;4.93;;
47529;SDS011;33272;51.922;7.730;2023-04-25T00:09:46;15.90;;;6.20;;
47529;SDS011;33272;51.922;7.730;2023-04-25T00:12:13;11.93;;;5.23;;
47529;SDS011;33272;51.922;7.730;2023-04-25T00:14:40;14.47;;;5.83;;
47529;SDS011;33272;51.922;7.730;2023-04-25T00:17:07;9.03;;;5.33;;
47529;SDS011;33272;51.922;7.730;2023-04-25T00:19:34;11.90;;;4.87;;
47529;SDS011;33272;51.922;7.730;2023-04-25T00:22:04;13.40;;;5.53;;
47529;SDS011;33272;51.922;7.730;2023-04-25T00:24:31;8.37;;;5.20;;
47529;SDS011;33272;51.922;7.730;2023-04-25T00:26:58;8.47;;;5.20;;
47529;SDS011;33272;51.922;7.730;2023-04-25T00:29:25;11.27;;;5.00;;
47529;SDS011;33272;51.922;7.730;2023-04-25T00:31:52;12.73;;;5.00;;
47529;SDS011;33272;51.922;7.730;2023-04-25T00:34:19;9.40;;;5.43;;
47529;SDS011;33272;51.922;7.730;2023-04-25T00:36:45;12.57;;;5.60;;
47529;SDS011;33272;51.922;7.730;2023-04-25T00:39:14;12.50;;;5.77;;
47529;SDS011;33272;51.922;7.730;2023-04-25T00:41:41;9.33;;;5.07;;
47529;SDS011;33272;51.922;7.730;2023-04-25T00:44:09;10.67;;;6.27;;
47529;SDS011;33272;51.922;7.730;2023-04-25T00:46:38;10.87;;;5.10;;
47529;SDS011;33272;51.922;7.730;2023-04-25T00:49:05;11.53;;;5.07;;
47529;SDS011;33272;51.922;7.730;2023-04-25T00:51:32;11.23;;;4.83;;
47529;SDS011;33272;51.922;7.730;2023-04-25T00:54:00;8.70;;;4.90;;
47529;SDS011;33272;51.922;7.730;2023-04-25T00:56:29;8.73;;;5.50;;
47529;SDS011;33272;51.922;7.730;2023-04-25T00:58:56;6.47;;;4.40;;
47529;SDS011;33272;51.922;7.730;2023-04-25T01:01:24;8.30;;;5.30;;
47529;SDS011;33272;51.922;7.730;2023-04-25T01:03:51;8.63;;;5.00;;
47529;SDS011;33272;51.922;7.730;2023-04-25T01:06:20;10.23;;;6.13;;
47529;SDS011;33272;51.922;7.730;2023-04-25T01:08:48;8.77;;;4.93;;
47529;SDS011;33272;51.922;7.730;2023-04-25T01:11:15;9.73;;;5.13;;
47529;SDS011;33272;51.922;7.730;2023-04-25T01:13:43;8.67;;;5.10;;
47529;SDS011;33272;51.922;7.730;2023-04-25T01:16:10;7.67;;;5.27;;
47529;SDS011;33272;51.922;7.730;2023-04-25T01:18:38;6.53;;;4.60;;
47529;SDS011;33272;51.922;7.730;2023-04-25T01:21:08;8.70;;;4.77;;
47529;SDS011;33272;51.922;7.730;2023-04-25T01:23:36;9.43;;;5.73;;
47529;SDS011;33272;51.922;7.730;2023-04-25T01:26:04;8.90;;;6.13;;
47529;SDS011;33272;51.922;7.730;2023-04-25T01:28:34;6.77;;;4.93;;
47529;SDS011;33272;51.922;7.730;2023-04-25T01:31:01;12.20;;;6.40;;
47529;SDS011;33272;51.922;7.730;2023-04-25T01:33:29;6.53;;;4.70;;
47529;SDS011;33272;51.922;7.730;2023-04-25T01:35:56;7.07;;;5.03;;
47529;SDS011;33272;51.922;7.730;2023-04-25T01:38:24;9.20;;;4.13;;
47529;SDS011;33272;51.922;7.730;2023-04-25T01:40:51;6.50;;;4.67;;
47529;SDS011;33272;51.922;7.730;2023-04-25T01:43:20;6.73;;;4.33;;
47529;SDS011;33272;51.922;7.730;2023-04-25T01:45:48;7.27;;;4.40;;
47529;SDS011;33272;51.922;7.730;2023-04-25T01:48:16;8.53;;;4.93;;
47529;SDS011;33272;51.922;7.730;2023-04-25T01:50:43;7.53;;;4.33;;
47529;SDS011;33272;51.922;7.730;2023-04-25T01:53:11;7.00;;;4.17;;
47529;SDS011;33272;51.922;7.730;2023-04-25T01:55:40;7.57;;;4.47;;
47529;SDS011;33272;51.922;7.730;2023-04-25T01:58:07;7.63;;;4.20;;
47529;SDS011;33272;51.922;7.730;2023-04-25T02:00:37;6.27;;;3.80;;
47529;SDS011;33272;51.922;7.730;2023-04-25T02:03:05;6.50;;;4.63;;
47529;SDS011;33272;51.922;7.730;2023-04-25T02:05:34;11.43;;;4.63;;
47529;SDS011;33272;51.922;7.730;2023-04-25T02:08:02;6.00;;;4.00;;
47529;SDS011;33272;51.922;7.730;2023-04-25T02:10:31;6.70;;;3.80;;
47529;SDS011;33272;51.922;7.730;2023-04-25T02:12:59;8.80;;;4.63;;
47529;SDS011;33272;51.922;7.730;2023-04-25T02:15:26;6.27;;;3.97;;
47529;SDS011;33272;51.922;7.730;2023-04-25T02:17:53;7.00;;;3.57;;
47529;SDS011;33272;51.922;7.730;2023-04-25T02:20:21;12.17;;;3.87;;
47529;SDS011;33272;51.922;7.730;2023-04-25T02:22:49;12.37;;;4.13;;
47529;SDS011;33272;51.922;7.730;2023-04-25T02:25:16;10.33;;;4.27;;
47529;SDS011;33272;51.922;7.730;2023-04-25T02:27:45;8.33;;;3.30;;
47529;SDS011;33272;51.922;7.730;2023-04-25T02:30:13;7.70;;;3.70;;
47529;SDS011;33272;51.922;7.730;2023-04-25T02:32:40;6.50;;;3.20;;
47529;SDS011;33272;51.922;7.730;2023-04-25T02:35:08;12.77;;;4.33;;
47529;SDS011;33272;51.922;7.730;2023-04-25T02:37:36;15.37;;;4.07;;
47529;SDS011;33272;51.922;7.730;2023-04-25T02:40:04;10.77;;;3.23;;
47529;SDS011;33272;51.922;7.730;2023-04-25T02:42:33;10.30;;;3.20;;
47529;SDS011;33272;51.922;7.730;2023-04-25T02:45:00;7.40;;;3.17;;
47529;SDS011;33272;51.922;7.730;2023-04-25T02:47:29;12.17;;;3.50;;
47529;SDS011;33272;51.922;7.730;2023-04-25T02:49:56;9.00;;;3.70;;
47529;SDS011;33272;51.922;7.730;2023-04-25T02:52:23;9.13;;;3.67;;
47529;SDS011;33272;51.922;7.730;2023-04-25T02:54:50;11.50;;;3.83;;
47529;SDS011;33272;51.922;7.730;2023-04-25T02:57:17;10.73;;;3.60;;
47529;SDS011;33272;51.922;7.730;2023-04-25T02:59:44;11.87;;;3.40;;
47529;SDS011;33272;51.922;7.730;2023-04-25T03:02:11;14.30;;;3.50;;
47529;SDS011;33272;51.922;7.730;2023-04-25T03:04:40;12.17;;;4.60;;
47529;SDS011;33272;51.922;7.730;2023-04-25T03:07:07;8.70;;;4.00;;
47529;SDS011;33272;51.922;7.730;2023-04-25T03:09:34;11.17;;;3.97;;
47529;SDS011;33272;51.922;7.730;2023-04-25T03:12:01;10.00;;;4.37;;
47529;SDS011;33272;51.922;7.730;2023-04-25T03:14:28;13.07;;;4.53;;
47529;SDS011;33272;51.922;7.730;2023-04-25T03:16:55;11.77;;;3.73;;
47529;SDS011;33272;51.922;7.730;2023-04-25T03:19:22;12.20;;;4.40;;
47529;SDS011;33272;51.922;7.730;2023-04-25T03:21:51;13.90;;;4.10;;
47529;SDS011;33272;51.922;7.730;2023-04-25T03:24:18;10.53;;;4.37;;
47529;SDS011;33272;51.922;7.730;2023-04-25T03:26:45;13.60;;;3.80;;
47529;SDS011;33272;51.922;7.730;2023-04-25T03:29:12;15.03;;;4.20;;
47529;SDS011;33272;51.922;7.730;2023-04-25T03:31:39;10.30;;;4.10;;
47529;SDS011;33272;51.922;7.730;2023-04-25T03:34:06;11.90;;;4.27;;
47529;SDS011;33272;51.922;7.730;2023-04-25T03:36:33;15.47;;;4.33;;
47529;SDS011;33272;51.922;7.730;2023-04-25T03:39:01;10.30;;;4.00;;
47529;SDS011;33272;51.922;7.730;2023-04-25T03:41:28;9.97;;;3.87;;
47529;SDS011;33272;51.922;7.730;2023-04-25T03:43:55;10.33;;;4.00;;
47529;SDS011;33272;51.922;7.730;2023-04-25T03:46:22;15.37;;;4.70;;
47529;SDS011;33272;51.922;7.730;2023-04-25T03:48:49;11.77;;;3.97;;
47529;SDS011;33272;51.922;7.730;2023-04-25T03:51:16;12.73;;;4.20;;
47529;SDS011;33272;51.922;7.730;2023-04-25T03:53:43;11.03;;;4.33;;
47529;SDS011;33272;51.922;7.730;2023-04-25T03:56:12;17.00;;;5.30;;
47529;SDS011;33272;51.922;7.730;2023-04-25T03:58:39;15.47;;;4.27;;
47529;SDS011;33272;51.922;7.730;2023-04-25T04:01:05;12.00;;;4.37;;
47529;SDS011;33272;51.922;7.730;2023-04-25T04:03:33;11.03;;;4.37;;
47529;SDS011;33272;51.922;7.730;2023-04-25T04:06:00;11.87;;;4.70;;
47529;SDS011;33272;51.922;7.730;2023-04-25T04:08:28;10.00;;;4.30;;
47529;SDS011;33272;51.922;7.730;2023-04-25T04:10:55;13.70;;;4.20;;
47529;SDS011;33272;51.922;7.730;2023-04-25T04:13:25;10.67;;;4.20;;
47529;SDS011;33272;51.922;7.730;2023-04-25T04:15:53;19.33;;;5.00;;
47529;SDS011;33272;51.922;7.730;2023-04-25T04:18:20;14.50;;;5.33;;
47529;SDS011;33272;51.922;7.730;2023-04-25T04:20:47;12.43;;;4.40;;
47529;SDS011;33272;51.922;7.730;2023-04-25T04:23:14;13.33;;;4.90;;
47529;SDS011;33272;51.922;7.730;2023-04-25T04:25:41;12.10;;;5.30;;
47529;SDS011;33272;51.922;7.730;2023-04-25T04:28:09;14.47;;;4.20;;
47529;SDS011;33272;51.922;7.730;2023-04-25T04:30:37;12.10;;;5.13;;
47529;SDS011;33272;51.922;7.730;2023-04-25T04:33:06;11.70;;;4.30;;
47529;SDS011;33272;51.922;7.730;2023-04-25T04:35:33;11.03;;;4.60;;
47529;SDS011;33272;51.922;7.730;2023-04-25T04:38:00;12.97;;;4.43;;
47529;SDS011;33272;51.922;7.730;2023-04-25T04:40:27;13.90;;;4.87;;
47529;SDS011;33272;51.922;7.730;2023-04-25T04:42:55;17.93;;;4.87;;
47529;SDS011;33272;51.922;7.730;2023-04-25T04:45:22;12.60;;;4.10;;
47529;SDS011;33272;51.922;7.730;2023-04-25T04:47:51;9.67;;;4.40;;
47529;SDS011;33272;51.922;7.730;2023-04-25T04:50:20;13.50;;;4.47;;
47529;SDS011;33272;51.922;7.730;2023-04-25T04:52:47;15.70;;;4.90;;
47529;SDS011;33272;51.922;7.730;2023-04-25T04:55:14;10.70;;;5.00;;
47529;SDS011;33272;51.922;7.730;2023-04-25T04:57:41;12.47;;;4.73;;
47529;SDS011;33272;51.922;7.730;2023-04-25T05:00:09;14.43;;;4.77;;
47529;SDS011;33272;51.922;7.730;2023-04-25T05:02:38;17.20;;;5.03;;
47529;SDS011;33272;51.922;7.730;2023-04-25T05:05:07;13.83;;;4.77;;
47529;SDS011;33272;51.922;7.730;2023-04-25T05:07:35;13.10;;;4.97;;
47529;SDS011;33272;51.922;7.730;2023-04-25T05:10:02;10.77;;;4.50;;
47529;SDS011;33272;51.922;7.730;2023-04-25T05:12:30;11.30;;;4.70;;
47529;SDS011;33272;51.922;7.730;2023-04-25T05:14:57;17.20;;;5.40;;
47529;SDS011;33272;51.922;7.730;2023-04-25T05:17:25;14.93;;;4.47;;
47529;SDS011;33272;51.922;7.730;2023-04-25T05:19:52;13.73;;;4.70;;
47529;SDS011;33272;51.922;7.730;2023-04-25T05:22:20;12.60;;;5.77;;
47529;SDS011;33272;51.922;7.730;2023-04-25T05:24:47;14.73;;;5.00;;
47529;SDS011;33272;51.922;7.730;2023-04-25T05:27:16;13.73;;;4.70;;
47529;SDS011;33272;51.922;7.730;2023-04-25T05:29:44;12.83;;;5.17;;
47529;SDS011;33272;51.922;7.730;2023-04-25T05:32:11;12.57;;;4.47;;
47529;SDS011;33272;51.922;7.730;2023-04-25T05:34:38;15.30;;;4.40;;
47529;SDS011;33272;51.922;7.730;2023-04-25T05:37:05;10.13;;;4.43;;
47529;SDS011;33272;51.922;7.730;2023-04-25T05:39:33;16.40;;;4.60;;
47529;SDS011;33272;51.922;7.730;2023-04-25T05:42:00;11.60;;;4.73;;
47529;SDS011;33272;51.922;7.730;2023-04-25T05:44:28;13.67;;;4.50;;
47529;SDS011;33272;51.922;7.730;2023-04-25T05:46:56;12.10;;;4.23;;
47529;SDS011;33272;51.922;7.730;2023-04-25T05:49:23;10.60;;;3.73;;
47529;SDS011;33272;51.922;7.730;2023-04-25T05:51:50;10.40;;;4.17;;
47529;SDS011;33272;51.922;7.730;2023-04-25T05:54:17;8.73;;;4.80;;
47529;SDS011;33272;51.922;7.730;2023-04-25T05:56:45;13.97;;;4.97;;
47529;SDS011;33272;51.922;7.730;2023-04-25T05:59:12;14.63;;;4.13;;
47529;SDS011;33272;51.922;7.730;2023-04-25T06:01:39;11.37;;;4.13;;
47529;SDS011;33272;51.922;7.730;2023-04-25T06:04:07;13.00;;;4.33;;
47529;SDS011;33272;51.922;7.730;2023-04-25T06:06:33;8.53;;;3.87;;
47529;SDS011;33272;51.922;7.730;2023-04-25T06:09:00;10.47;;;3.97;;
47529;SDS011;33272;51.922;7.730;2023-04-25T06:11:27;11.40;;;5.17;;
47529;SDS011;33272;51.922;7.730;2023-04-25T06:13:56;13.17;;;4.07;;
47529;SDS011;33272;51.922;7.730;2023-04-25T06:16:23;8.53;;;3.70;;
47529;SDS011;33272;51.922;7.730;2023-04-25T06:18:50;12.83;;;4.10;;
47529;SDS011;33272;51.922;7.730;2023-04-25T06:21:17;11.47;;;4.17;;
47529;SDS011;33272;51.922;7.730;2023-04-25T06:23:44;8.40;;;3.63;;
47529;SDS011;33272;51.922;7.730;2023-04-25T06:26:11;12.87;;;4.07;;
47529;SDS011;33272;51.922;7.730;2023-04-25T06:28:38;12.60;;;4.13;;
47529;SDS011;33272;51.922;7.730;2023-04-25T06:31:07;9.00;;;3.53;;
47529;SDS011;33272;51.922;7.730;2023-04-25T06:33:34;13.97;;;4.27;;
47529;SDS011;33272;51.922;7.730;2023-04-25T06:36:01;10.03;;;3.37;;
47529;SDS011;33272;51.922;7.730;2023-04-25T06:38:28;11.63;;;3.47;;
47529;SDS011;33272;51.922;7.730;2023-04-25T06:40:55;9.90;;;3.77;;
47529;SDS011;33272;51.922;7.730;2023-04-25T06:43:22;10.13;;;3.93;;
47529;SDS011;33272;51.922;7.730;2023-04-25T06:45:49;8.10;;;3.30;;
47529;SDS011;33272;51.922;7.730;2023-04-25T06:48:17;10.47;;;3.40;;
47529;SDS011;33272;51.922;7.730;2023-04-25T06:50:44;12.27;;;3.70;;
47529;SDS011;33272;51.922;7.730;2023-04-25T06:53:11;10.80;;;2.90;;
47529;SDS011;33272;51.922;7.730;2023-04-25T06:55:38;11.40;;;3.50;;
47529;SDS011;33272;51.922;7.730;2023-04-25T06:58:05;11.43;;;4.03;;
47529;SDS011;33272;51.922;7.730;2023-04-25T07:00:33;9.30;;;2.87;;
47529;SDS011;33272;51.922;7.730;2023-04-25T07:03:00;9.97;;;3.00;;
47529;SDS011;33272;51.922;7.730;2023-04-25T07:05:28;9.40;;;3.37;;
47529;SDS011;33272;51.922;7.730;2023-04-25T07:07:55;7.33;;;2.93;;
47529;SDS011;33272;51.922;7.730;2023-04-25T07:10:22;10.93;;;3.23;;
47529;SDS011;33272;51.922;7.730;2023-04-25T07:12:50;11.43;;;3.63;;
47529;SDS011;33272;51.922;7.730;2023-04-25T07:15:17;12.93;;;3.63;;
47529;SDS011;33272;51.922;7.730;2023-04-25T07:17:44;7.27;;;2.80;;
47529;SDS011;33272;51.922;7.730;2023-04-25T07:20:11;14.40;;;3.90;;
47529;SDS011;33272;51.922;7.730;2023-04-25T07:22:39;10.10;;;3.47;;
47529;SDS011;33272;51.922;7.730;2023-04-25T07:25:07;8.87;;;2.97;;
47529;SDS011;33272;51.922;7.730;2023-04-25T07:27:34;9.07;;;3.30;;
47529;SDS011;33272;51.922;7.730;2023-04-25T07:30:01;9.00;;;3.23;;
47529;SDS011;33272;51.922;7.730;2023-04-25T07:32:30;8.87;;;2.87;;
47529;SDS011;33272;51.922;7.730;2023-04-25T07:34:56;8.80;;;3.07;;
47529;SDS011;33272;51.922;7.730;2023-04-25T07:37:23;7.40;;;2.90;;
47529;SDS011;33272;51.922;7.730;2023-04-25T07:39:52;6.77;;;3.20;;
47529;SDS011;33272;51.922;7.730;2023-04-25T07:42:19;9.67;;;2.87;;
47529;SDS011;33272;51.922;7.730;2023-04-25T07:44:47;12.50;;;3.60;;
47529;SDS011;33272;51.922;7.730;2023-04-25T07:47:14;9.20;;;3.37;;
47529;SDS011;33272;51.922;7.730;2023-04-25T07:49:41;9.67;;;2.93;;
47529;SDS011;33272;51.922;7.730;2023-04-25T07:52:08;10.47;;;3.10;;
47529;SDS011;33272;51.922;7.730;2023-04-25T07:54:35;9.90;;;2.73;;
47529;SDS011;33272;51.922;7.730;2023-04-25T07:57:03;7.90;;;2.80;;
47529;SDS011;33272;51.922;7.730;2023-04-25T07:59:31;8.30;;;3.10;;
47529;SDS011;33272;51.922;7.730;2023-04-25T08:01:58;9.37;;;3.77;;
47529;SDS011;33272;51.922;7.730;2023-04-25T08:04:26;7.67;;;2.60;;
47529;SDS011;33272;51.922;7.730;2023-04-25T08:06:53;7.43;;;2.73;;
47529;SDS011;33272;51.922;7.730;2023-04-25T08:09:20;6.87;;;2.63;;
47529;SDS011;33272;51.922;7.730;2023-04-25T08:11:48;10.23;;;2.50;;
47529;SDS011;33272;51.922;7.730;2023-04-25T08:14:16;7.23;;;2.70;;
47529;SDS011;33272;51.922;7.730;2023-04-25T08:16:43;9.80;;;3.63;;
47529;SDS011;33272;51.922;7.730;2023-04-25T08:19:10;9.70;;;3.13;;
47529;SDS011;33272;51.922;7.730;2023-04-25T08:21:37;6.63;;;2.53;;
47529;SDS011;33272;51.922;7.730;2023-04-25T08:24:04;7.87;;;3.03;;
47529;SDS011;33272;51.922;7.730;2023-04-25T08:26:32;8.53;;;3.00;;
47529;SDS011;33272;51.922;7.730;2023-04-25T08:28:59;7.33;;;2.43;;
47529;SDS011;33272;51.922;7.730;2023-04-25T08:31:27;6.47;;;2.20;;
47529;SDS011;33272;51.922;7.730;2023-04-25T08:33:54;6.83;;;2.50;;
47529;SDS011;33272;51.922;7.730;2023-04-25T08:36:21;7.13;;;2.60;;
47529;SDS011;33272;51.922;7.730;2023-04-25T08:38:49;6.67;;;2.43;;
47529;SDS011;33272;51.922;7.730;2023-04-25T08:41:16;8.67;;;2.80;;
47529;SDS011;33272;51.922;7.730;2023-04-25T08:43:44;7.20;;;2.57;;
47529;SDS011;33272;51.922;7.730;2023-04-25T08:46:14;9.47;;;3.00;;
47529;SDS011;33272;51.922;7.730;2023-04-25T08:48:45;5.57;;;2.07;;
47529;SDS011;33272;51.922;7.730;2023-04-25T08:51:14;4.83;;;2.70;;
47529;SDS011;33272;51.922;7.730;2023-04-25T08:53:48;5.27;;;2.00;;
47529;SDS011;33272;51.922;7.730;2023-04-25T08:56:17;5.40;;;2.27;;
47529;SDS011;33272;51.922;7.730;2023-04-25T08:58:47;8.03;;;2.13;;
47529;SDS011;33272;51.922;7.730;2023-04-25T09:01:16;7.87;;;2.33;;
47529;SDS011;33272;51.922;7.730;2023-04-25T09:03:43;4.80;;;2.33;;
47529;SDS011;33272;51.922;7.730;2023-04-25T09:06:12;8.27;;;2.43;;
47529;SDS011;33272;51.922;7.730;2023-04-25T09:08:41;5.40;;;2.17;;
47529;SDS011;33272;51.922;7.730;2023-04-25T09:11:08;5.57;;;2.10;;
47529;SDS011;33272;51.922;7.730;2023-04-25T09:13:35;7.57;;;2.77;;
47529;SDS011;33272;51.922;7.730;2023-04-25T09:16:02;6.77;;;2.07;;
47529;SDS011;33272;51.922;7.730;2023-04-25T09:18:29;3.40;;;1.53;;
47529;SDS011;33272;51.922;7.730;2023-04-25T09:21:04;6.00;;;2.00;;
47529;SDS011;33272;51.922;7.730;2023-04-25T09:23:38;4.87;;;1.80;;
47529;SDS011;33272;51.922;7.730;2023-04-25T09:26:06;7.23;;;2.00;;
47529;SDS011;33272;51.922;7.730;2023-04-25T09:28:34;5.47;;;2.07;;
47529;SDS011;33272;51.922;7.730;2023-04-25T09:31:03;5.90;;;2.13;;
47529;SDS011;33272;51.922;7.730;2023-04-25T09:33:30;4.20;;;1.73;;
47529;SDS011;33272;51.922;7.730;2023-04-25T09:36:05;6.37;;;2.20;;
47529;SDS011;33272;51.922;7.730;2023-04-25T09:38:39;6.27;;;1.60;;
47529;SDS011;33272;51.922;7.730;2023-04-25T09:41:08;5.80;;;2.10;;
47529;SDS011;33272;51.922;7.730;2023-04-25T09:43:36;5.40;;;1.80;;
47529;SDS011;33272;51.922;7.730;2023-04-25T09:46:07;6.27;;;2.00;;
47529;SDS011;33272;51.922;7.730;2023-04-25T09:48:36;4.23;;;1.70;;
47529;SDS011;33272;51.922;7.730;2023-04-25T09:51:05;5.50;;;1.60;;
47529;SDS011;33272;51.922;7.730;2023-04-25T09:53:34;5.40;;;1.67;;
47529;SDS011;33272;51.922;7.730;2023-04-25T09:56:03;6.17;;;2.73;;
47529;SDS011;33272;51.922;7.730;2023-04-25T09:58:32;4.03;;;1.53;;
47529;SDS011;33272;51.922;7.730;2023-04-25T10:01:01;6.03;;;1.70;;
47529;SDS011;33272;51.922;7.730;2023-04-25T10:03:29;3.87;;;1.50;;
47529;SDS011;33272;51.922;7.730;2023-04-25T10:05:58;6.30;;;1.77;;
47529;SDS011;33272;51.922;7.730;2023-04-25T10:08:30;5.03;;;2.17;;
47529;SDS011;33272;51.922;7.730;2023-04-25T10:11:00;4.00;;;1.47;;
47529;SDS011;33272;51.922;7.730;2023-04-25T10:13:29;4.93;;;1.37;;
47529;SDS011;33272;51.922;7.730;2023-04-25T10:15:57;3.50;;;1.53;;
47529;SDS011;33272;51.922;7.730;2023-04-25T10:18:25;5.17;;;1.80;;
47529;SDS011;33272;51.922;7.730;2023-04-25T10:20:53;4.67;;;1.50;;
47529;SDS011;33272;51.922;7.730;2023-04-25T10:23:22;4.20;;;1.60;;
47529;SDS011;33272;51.922;7.730;2023-04-25T10:25:51;4.80;;;1.40;;
47529;SDS011;33272;51.922;7.730;2023-04-25T10:28:20;3.77;;;1.40;;
47529;SDS011;33272;51.922;7.730;2023-04-25T10:30:56;4.00;;;1.57;;
47529;SDS011;33272;51.922;7.730;2023-04-25T10:33:34;4.20;;;2.20;;
47529;SDS011;33272;51.922;7.730;2023-04-25T10:36:08;3.97;;;1.60;;
47529;SDS011;33272;51.922;7.730;2023-04-25T10:38:37;2.00;;;1.30;;
47529;SDS011;33272;51.922;7.730;2023-04-25T10:41:07;2.57;;;1.60;;
47529;SDS011;33272;51.922;7.730;2023-04-25T10:43:36;5.20;;;1.90;;
47529;SDS011;33272;51.922;7.730;2023-04-25T10:46:17;6.87;;;1.63;;
47529;SDS011;33272;51.922;7.730;2023-04-25T10:48:46;3.23;;;1.47;;
47529;SDS011;33272;51.922;7.730;2023-04-25T10:51:18;3.07;;;1.67;;
47529;SDS011;33272;51.922;7.730;2023-04-25T10:53:56;3.70;;;1.80;;
47529;SDS011;33272;51.922;7.730;2023-04-25T10:56:27;4.63;;;1.77;;
47529;SDS011;33272;51.922;7.730;2023-04-25T10:59:06;1.93;;;1.43;;
47529;SDS011;33272;51.922;7.730;2023-04-25T11:01:36;3.97;;;1.83;;
47529;SDS011;33272;51.922;7.730;2023-04-25T11:04:05;5.13;;;1.60;;
47529;SDS011;33272;51.922;7.730;2023-04-25T11:06:46;6.93;;;1.93;;
47529;SDS011;33272;51.922;7.730;2023-04-25T11:09:28;6.07;;;1.70;;
47529;SDS011;33272;51.922;7.730;2023-04-25T11:11:57;5.27;;;1.83;;
47529;SDS011;33272;51.922;7.730;2023-04-25T11:14:26;3.30;;;1.60;;
47529;SDS011;33272;51.922;7.730;2023-04-25T11:16:53;4.00;;;2.00;;
47529;SDS011;33272;51.922;7.730;2023-04-25T11:19:20;5.03;;;1.67;;
47529;SDS011;33272;51.922;7.730;2023-04-25T11:21:47;6.30;;;2.03;;
47529;SDS011;33272;51.922;7.730;2023-04-25T11:24:16;3.47;;;1.90;;
47529;SDS011;33272;51.922;7.730;2023-04-25T11:26:44;4.90;;;2.13;;
47529;SDS011;33272;51.922;7.730;2023-04-25T11:29:15;5.20;;;2.10;;
47529;SDS011;33272;51.922;7.730;2023-04-25T11:31:42;5.23;;;1.70;;
47529;SDS011;33272;51.922;7.730;2023-04-25T11:34:10;4.90;;;1.70;;
47529;SDS011;33272;51.922;7.730;2023-04-25T11:36:38;6.23;;;2.17;;
47529;SDS011;33272;51.922;7.730;2023-04-25T11:39:05;2.87;;;1.60;;
47529;SDS011;33272;51.922;7.730;2023-04-25T11:41:32;5.43;;;1.73;;
47529;SDS011;33272;51.922;7.730;2023-04-25T11:43:59;8.07;;;2.13;;
47529;SDS011;33272;51.922;7.730;2023-04-25T11:46:28;4.33;;;1.60;;
47529;SDS011;33272;51.922;7.730;2023-04-25T11:48:55;4.70;;;1.80;;
47529;SDS011;33272;51.922;7.730;2023-04-25T11:51:23;2.80;;;1.80;;
47529;SDS011;33272;51.922;7.730;2023-04-25T11:53:50;8.20;;;2.17;;
47529;SDS011;33272;51.922;7.730;2023-04-25T11:56:17;6.53;;;2.20;;
47529;SDS011;33272;51.922;7.730;2023-04-25T11:58:55;5.90;;;1.70;;
47529;SDS011;33272;51.922;7.730;2023-04-25T12:01:28;5.47;;;1.87;;
47529;SDS011;33272;51.922;7.730;2023-04-25T12:03:57;5.63;;;2.00;;
47529;SDS011;33272;51.922;7.730;2023-04-25T12:06:28;3.07;;;1.50;;
47529;SDS011;33272;51.922;7.730;2023-04-25T12:09:01;3.50;;;1.47;;
47529;SDS011;33272;51.922;7.730;2023-04-25T12:11:29;3.57;;;1.30;;
47529;SDS011;33272;51.922;7.730;2023-04-25T12:14:01;3.40;;;1.30;;
47529;SDS011;33272;51.922;7.730;2023-04-25T12:16:31;3.63;;;1.27;;
47529;SDS011;33272;51.922;7.730;2023-04-25T12:19:07;3.20;;;1.40;;
47529;SDS011;33272;51.922;7.730;2023-04-25T12:21:34;2.30;;;1.00;;
47529;SDS011;33272;51.922;7.730;2023-04-25T12:24:12;2.00;;;0.93;;
47529;SDS011;33272;51.922;7.730;2023-04-25T12:26:47;3.87;;;1.30;;
47529;SDS011;33272;51.922;7.730;2023-04-25T12:29:18;3.23;;;1.30;;
47529;SDS011;33272;51.922;7.730;2023-04-25T12:31:48;3.63;;;1.10;;
47529;SDS011;33272;51.922;7.730;2023-04-25T12:34:16;2.80;;;1.23;;
47529;SDS011;33272;51.922;7.730;2023-04-25T12:36:43;3.17;;;1.10;;
47529;SDS011;33272;51.922;7.730;2023-04-25T12:39:20;2.33;;;1.10;;
47529;SDS011;33272;51.922;7.730;2023-04-25T12:41:48;2.63;;;1.23;;
47529;SDS011;33272;51.922;7.730;2023-04-25T12:44:17;4.33;;;1.30;;
47529;SDS011;33272;51.922;7.730;2023-04-25T12:46:44;2.53;;;1.50;;
47529;SDS011;33272;51.922;7.730;2023-04-25T12:49:12;5.87;;;1.50;;
47529;SDS011;33272;51.922;7.730;2023-04-25T12:51:39;3.90;;;1.53;;
47529;SDS011;33272;51.922;7.730;2023-04-25T12:54:07;4.47;;;1.30;;
47529;SDS011;33272;51.922;7.730;2023-04-25T12:56:35;3.40;;;1.47;;
47529;SDS011;33272;51.922;7.730;2023-04-25T12:59:02;2.13;;;1.30;;
47529;SDS011;33272;51.922;7.730;2023-04-25T13:01:29;3.07;;;1.37;;
47529;SDS011;33272;51.922;7.730;2023-04-25T13:03:56;3.67;;;1.80;;
47529;SDS011;33272;51.922;7.730;2023-04-25T13:06:25;2.53;;;1.30;;
47529;SDS011;33272;51.922;7.730;2023-04-25T13:08:52;3.73;;;2.00;;
47529;SDS011;33272;51.922;7.730;2023-04-25T13:11:19;3.43;;;1.50;;
47529;SDS011;33272;51.922;7.730;2023-04-25T13:13:46;3.60;;;1.83;;
47529;SDS011;33272;51.922;7.730;2023-04-25T13:16:13;5.07;;;2.00;;
47529;SDS011;33272;51.922;7.730;2023-04-25T13:18:40;4.77;;;1.70;;
47529;SDS011;33272;51.922;7.730;2023-04-25T13:21:07;4.03;;;1.67;;
47529;SDS011;33272;51.922;7.730;2023-04-25T13:23:38;2.70;;;1.47;;
47529;SDS011;33272;51.922;7.730;2023-04-25T13:26:05;2.13;;;1.50;;
47529;SDS011;33272;51.922;7.730;2023-04-25T13:28:32;3.90;;;1.70;;
47529;SDS011;33272;51.922;7.730;2023-04-25T13:30:59;3.30;;;1.33;;
47529;SDS011;33272;51.922;7.730;2023-04-25T13:33:26;3.40;;;1.83;;
47529;SDS011;33272;51.922;7.730;2023-04-25T13:35:53;4.30;;;1.50;;
47529;SDS011;33272;51.922;7.730;2023-04-25T13:38:22;4.57;;;1.40;;
47529;SDS011;33272;51.922;7.730;2023-04-25T13:40:53;3.67;;;1.70;;
47529;SDS011;33272;51.922;7.730;2023-04-25T13:43:20;2.27;;;1.20;;
47529;SDS011;33272;51.922;7.730;2023-04-25T13:45:48;2.53;;;1.40;;
47529;SDS011;33272;51.922;7.730;2023-04-25T13:48:15;3.53;;;1.70;;
47529;SDS011;33272;51.922;7.730;2023-04-25T13:50:42;4.90;;;1.60;;
47529;SDS011;33272;51.922;7.730;2023-04-25T13:53:10;2.67;;;1.30;;
47529;SDS011;33272;51.922;7.730;2023-04-25T13:55:37;2.80;;;1.50;;
47529;SDS011;33272;51.922;7.730;2023-04-25T13:58:06;4.60;;;2.20;;
47529;SDS011;33272;51.922;7.730;2023-04-25T14:00:35;4.00;;;1.90;;
47529;SDS011;33272;51.922;7.730;2023-04-25T14:03:04;2.93;;;1.50;;
47529;SDS011;33272;51.922;7.730;2023-04-25T14:05:33;4.83;;;1.57;;
47529;SDS011;33272;51.922;7.730;2023-04-25T14:08:04;5.53;;;2.03;;
47529;SDS011;33272;51.922;7.730;2023-04-25T14:10:32;3.77;;;1.40;;
47529;SDS011;33272;51.922;7.730;2023-04-25T14:12:59;3.00;;;1.30;;
47529;SDS011;33272;51.922;7.730;2023-04-25T14:15:29;2.20;;;1.43;;
47529;SDS011;33272;51.922;7.730;2023-04-25T14:17:57;4.03;;;1.50;;
47529;SDS011;33272;51.922;7.730;2023-04-25T14:20:24;4.80;;;1.73;;
47529;SDS011;33272;51.922;7.730;2023-04-25T14:22:51;3.00;;;1.33;;
47529;SDS011;33272;51.922;7.730;2023-04-25T14:25:19;4.40;;;1.80;;
47529;SDS011;33272;51.922;7.730;2023-04-25T14:27:46;3.40;;;1.50;;
47529;SDS011;33272;51.922;7.730;2023-04-25T14:30:15;1.90;;;1.30;;
47529;SDS011;33272;51.922;7.730;2023-04-25T14:32:43;3.03;;;1.60;;
47529;SDS011;33272;51.922;7.730;2023-04-25T14:35:11;4.60;;;1.70;;
47529;SDS011;33272;51.922;7.730;2023-04-25T14:37:38;3.70;;;1.50;;
47529;SDS011;33272;51.922;7.730;2023-04-25T14:40:05;4.10;;;1.73;;
47529;SDS011;33272;51.922;7.730;2023-04-25T14:42:35;3.93;;;1.17;;
47529;SDS011;33272;51.922;7.730;2023-04-25T14:45:03;2.53;;;1.60;;
47529;SDS011;33272;51.922;7.730;2023-04-25T14:47:32;4.07;;;1.70;;
47529;SDS011;33272;51.922;7.730;2023-04-25T14:50:01;2.30;;;1.43;;